createdAt,value
2018-08-23T00:00:32.882Z,27.10
2018-08-23T00:01:32.898Z,26.80
2018-08-23T00:02:32.844Z,27.10
2018-08-23T00:03:32.927Z,27.50
2018-08-23T00:04:32.800Z,27.40
2018-08-23T00:05:32.823Z,28.30
2018-08-23T00:06:32.763Z,28.40
2018-08-23T00:07:32.841Z,27.50
2018-08-23T00:08:32.726Z,27.70
2018-08-23T00:09:32.751Z,28.00
2018-08-23T00:10:32.677Z,28.00
2018-08-23T00:11:32.763Z,28.80
2018-08-23T00:12:32.637Z,27.80
2018-08-23T00:13:32.675Z,27.60
2018-08-23T00:14:32.594Z,28.20
2018-08-23T00:15:32.688Z,27.70
2018-08-23T00:16:32.592Z,28.50
2018-08-23T00:17:32.602Z,26.90
2018-08-23T00:18:32.516Z,26.40
2018-08-23T00:19:32.512Z,27.40
2018-08-23T00:20:32.477Z,27.30
2018-08-23T00:21:32.525Z,27.80
2018-08-23T00:22:32.436Z,27.90
2018-08-23T00:23:32.439Z,27.70
2018-08-23T00:24:32.393Z,26.70
2018-08-23T00:25:32.453Z,27.80
2018-08-23T00:26:32.353Z,26.90
2018-08-23T00:27:32.364Z,27.00
2018-08-23T00:28:32.313Z,27.00
2018-08-23T00:29:32.379Z,26.80
2018-08-23T00:30:32.269Z,27.80
2018-08-23T00:31:32.295Z,26.90
2018-08-23T00:32:32.230Z,28.30
2018-08-23T00:33:32.310Z,28.80
2018-08-23T00:34:32.196Z,27.30
2018-08-23T00:35:32.218Z,26.90
2018-08-23T00:36:32.149Z,26.70
2018-08-23T00:37:32.231Z,26.40
2018-08-23T00:38:32.108Z,27.40
2018-08-23T00:39:32.141Z,27.40
2018-08-23T00:40:32.073Z,26.60
2018-08-23T00:41:32.156Z,26.00
2018-08-23T00:42:32.033Z,26.20
2018-08-23T00:43:32.071Z,27.60
2018-08-23T00:44:31.990Z,27.30
2018-08-23T00:45:31.982Z,27.60
2018-08-23T00:46:31.942Z,27.50
2018-08-23T00:47:31.996Z,27.90
2018-08-23T00:48:31.903Z,27.50
2018-08-23T00:49:31.908Z,27.20
2018-08-23T00:50:31.861Z,26.80
2018-08-23T00:51:31.923Z,27.50
2018-08-23T00:52:31.819Z,27.90
2018-08-23T00:53:31.835Z,28.00
2018-08-23T00:54:31.786Z,26.50
2018-08-23T00:55:31.850Z,26.60
2018-08-23T00:56:31.741Z,29.70
2018-08-23T00:57:31.761Z,28.70
2018-08-23T00:58:31.698Z,30.00
2018-08-23T00:59:31.778Z,28.90
2018-08-23T01:00:31.657Z,27.20
2018-08-23T01:01:31.688Z,28.90
2018-08-23T01:02:31.613Z,28.90
2018-08-23T01:03:31.704Z,28.90
2018-08-23T01:04:31.573Z,26.60
2018-08-23T01:05:31.615Z,27.60
2018-08-23T01:06:31.533Z,27.80
2018-08-23T01:07:31.629Z,26.90
2018-08-23T01:08:31.492Z,26.90
2018-08-23T01:09:31.539Z,27.40
2018-08-23T01:10:31.451Z,27.10
2018-08-23T01:11:31.450Z,26.70
2018-08-23T01:12:31.407Z,26.90
2018-08-23T01:13:31.467Z,27.10
2018-08-23T01:14:31.367Z,26.50
2018-08-23T01:15:31.380Z,27.30
2018-08-23T01:16:31.333Z,27.30
2018-08-23T01:17:31.391Z,27.10
2018-08-23T01:18:31.281Z,26.40
2018-08-23T01:19:31.302Z,27.00
2018-08-23T01:20:31.247Z,27.80
2018-08-23T01:21:31.315Z,28.60
2018-08-23T01:22:31.197Z,28.50
2018-08-23T01:23:31.228Z,27.30
2018-08-23T01:24:31.162Z,27.20
2018-08-23T01:25:31.242Z,27.00
2018-08-23T01:26:31.119Z,26.50
2018-08-23T01:27:31.155Z,27.00
2018-08-23T01:28:31.074Z,26.80
2018-08-23T01:29:31.066Z,26.40
2018-08-23T01:30:31.035Z,25.50
2018-08-23T01:31:31.081Z,25.70
2018-08-23T01:32:30.993Z,27.50
2018-08-23T01:33:30.992Z,26.10
2018-08-23T01:34:30.948Z,28.10
2018-08-23T01:35:31.008Z,27.00
2018-08-23T01:36:30.908Z,28.10
2018-08-23T01:37:30.916Z,27.60
2018-08-23T01:38:30.867Z,28.20
2018-08-23T01:39:30.934Z,28.20
2018-08-23T01:40:30.822Z,27.20
2018-08-23T01:41:30.845Z,28.80
2018-08-23T01:42:30.779Z,28.10
2018-08-23T01:43:30.859Z,28.30
2018-08-23T01:44:30.736Z,28.20
2018-08-23T01:45:30.772Z,27.50
2018-08-23T01:46:30.705Z,27.70
2018-08-23T01:47:30.786Z,28.70
2018-08-23T01:49:30.697Z,26.90
2018-08-23T01:50:30.613Z,27.20
2018-08-23T01:51:30.608Z,27.80
2018-08-23T01:52:30.572Z,27.20
2018-08-23T01:53:30.623Z,28.00
2018-08-23T01:54:30.526Z,27.10
2018-08-23T01:55:30.534Z,27.40
2018-08-23T01:56:30.487Z,28.60
2018-08-23T01:57:30.550Z,27.40
2018-08-23T01:58:30.443Z,28.00
2018-08-23T01:59:30.464Z,27.10
2018-08-23T02:00:30.441Z,26.60
2018-08-23T02:01:30.476Z,28.00
2018-08-23T02:02:30.360Z,27.90
2018-08-23T02:03:30.388Z,28.70
2018-08-23T02:04:30.318Z,27.80
2018-08-23T02:05:30.402Z,27.60
2018-08-23T02:06:30.279Z,28.70
2018-08-23T02:07:30.314Z,28.40
2018-08-23T02:08:30.237Z,28.80
2018-08-23T02:09:30.325Z,28.20
2018-08-23T02:10:30.189Z,30.20
2018-08-23T02:11:30.238Z,30.30
2018-08-23T02:12:30.149Z,29.50
2018-08-23T02:13:30.153Z,28.30
2018-08-23T02:14:30.108Z,32.20
2018-08-23T02:15:30.169Z,29.00
2018-08-23T02:16:30.061Z,29.30
2018-08-23T02:17:30.080Z,29.90
2018-08-23T02:18:30.020Z,30.40
2018-08-23T02:19:30.095Z,30.00
2018-08-23T02:20:29.978Z,29.50
2018-08-23T02:21:30.006Z,30.00
2018-08-23T02:22:29.935Z,31.70
2018-08-23T02:23:30.021Z,32.00
2018-08-23T02:24:29.897Z,34.50
2018-08-23T02:25:29.936Z,33.50
2018-08-23T02:26:29.849Z,33.40
2018-08-23T02:27:29.847Z,34.90
2018-08-23T02:28:29.805Z,36.10
2018-08-23T02:29:29.858Z,35.90
2018-08-23T02:30:29.768Z,35.40
2018-08-23T02:31:29.771Z,34.50
2018-08-23T02:32:29.721Z,34.00
2018-08-23T02:33:29.786Z,33.70
2018-08-23T02:34:29.679Z,34.80
2018-08-23T02:35:29.698Z,35.30
2018-08-23T02:36:29.637Z,34.50
2018-08-23T02:37:29.711Z,33.90
2018-08-23T02:38:29.593Z,34.90
2018-08-23T02:39:29.623Z,33.10
2018-08-23T02:40:29.552Z,33.40
2018-08-23T02:41:29.643Z,33.50
2018-08-23T02:42:29.508Z,34.10
2018-08-23T02:43:29.554Z,33.30
2018-08-23T02:44:29.466Z,34.50
2018-08-23T02:45:29.467Z,34.80
2018-08-23T02:46:29.426Z,34.40
2018-08-23T02:47:29.475Z,34.90
2018-08-23T02:48:29.383Z,33.60
2018-08-23T02:49:29.386Z,33.50
2018-08-23T02:50:29.336Z,35.30
2018-08-23T02:51:29.408Z,34.70
2018-08-23T02:52:29.296Z,36.00
2018-08-23T02:53:29.315Z,36.00
2018-08-23T02:54:29.255Z,36.90
2018-08-23T02:55:29.329Z,40.30
2018-08-23T02:56:29.211Z,39.90
2018-08-23T02:57:29.239Z,37.70
2018-08-23T02:58:29.168Z,38.90
2018-08-23T02:59:29.253Z,36.90
2018-08-23T03:00:29.178Z,39.00
2018-08-23T03:01:29.164Z,38.10
2018-08-23T03:02:29.080Z,38.70
2018-08-23T03:03:29.075Z,39.20
2018-08-23T03:04:29.038Z,39.00
2018-08-23T03:05:29.093Z,37.80
2018-08-23T03:06:28.997Z,38.00
2018-08-23T03:07:29.003Z,36.40
2018-08-23T03:08:28.951Z,38.00
2018-08-23T03:09:29.014Z,37.20
2018-08-23T03:10:28.908Z,36.10
2018-08-23T03:11:28.928Z,36.20
2018-08-23T03:12:28.863Z,35.60
2018-08-23T03:13:28.965Z,35.90
2018-08-23T03:14:28.822Z,35.00
2018-08-23T03:15:28.854Z,36.20
2018-08-23T03:16:28.781Z,35.60
2018-08-23T03:17:28.867Z,34.90
2018-08-23T03:18:28.738Z,35.40
2018-08-23T03:19:28.783Z,37.10
2018-08-23T03:20:28.693Z,37.60
2018-08-23T03:21:28.690Z,36.00
2018-08-23T03:22:28.649Z,35.40
2018-08-23T03:23:28.705Z,35.40
2018-08-23T03:24:28.608Z,35.70
2018-08-23T03:25:28.617Z,35.90
2018-08-23T03:26:28.561Z,36.30
2018-08-23T03:27:28.629Z,35.20
2018-08-23T03:28:28.521Z,35.40
2018-08-23T03:29:28.542Z,35.60
2018-08-23T03:30:28.483Z,35.00
2018-08-23T03:31:28.559Z,34.90
2018-08-23T03:32:28.434Z,34.50
2018-08-23T03:33:28.470Z,35.10
2018-08-23T03:34:28.391Z,35.80
2018-08-23T03:35:28.483Z,35.90
2018-08-23T03:36:28.347Z,36.90
2018-08-23T03:37:28.394Z,34.20
2018-08-23T03:38:28.302Z,35.20
2018-08-23T03:39:28.308Z,36.60
2018-08-23T03:40:28.259Z,38.00
2018-08-23T03:41:28.320Z,38.90
2018-08-23T03:42:28.218Z,39.40
2018-08-23T03:43:28.234Z,41.10
2018-08-23T03:44:28.181Z,38.20
2018-08-23T03:45:28.252Z,39.50
2018-08-23T03:46:28.131Z,40.40
2018-08-23T03:47:28.160Z,40.30
2018-08-23T03:48:28.096Z,42.60
2018-08-23T03:49:28.173Z,42.20
2018-08-23T03:50:28.044Z,42.90
2018-08-23T03:51:28.088Z,42.10
2018-08-23T03:52:28.014Z,42.50
2018-08-23T03:53:27.999Z,42.60
2018-08-23T03:54:27.957Z,41.80
2018-08-23T03:55:28.011Z,44.80
2018-08-23T03:56:27.912Z,42.70
2018-08-23T03:57:27.924Z,44.90
2018-08-23T03:58:27.868Z,43.10
2018-08-23T03:59:27.939Z,42.70
2018-08-23T04:00:27.827Z,42.10
2018-08-23T04:01:27.852Z,38.90
2018-08-23T04:02:27.785Z,39.20
2018-08-23T04:03:27.864Z,40.70
2018-08-23T04:04:27.739Z,39.30
2018-08-23T04:05:27.775Z,37.90
2018-08-23T04:06:27.697Z,38.20
2018-08-23T04:07:27.790Z,38.10
2018-08-23T04:08:27.655Z,38.70
2018-08-23T04:09:27.701Z,39.00
2018-08-23T04:10:27.607Z,39.80
2018-08-23T04:11:27.619Z,39.20
2018-08-23T04:12:27.566Z,40.10
2018-08-23T04:13:27.627Z,39.00
2018-08-23T04:14:27.522Z,39.80
2018-08-23T04:15:27.579Z,39.90
2018-08-23T04:16:27.483Z,38.40
2018-08-23T04:17:27.554Z,40.10
2018-08-23T04:18:27.436Z,39.80
2018-08-23T04:19:27.461Z,39.30
2018-08-23T04:20:27.394Z,41.00
2018-08-23T04:21:27.479Z,38.50
2018-08-23T04:22:27.349Z,40.00
2018-08-23T04:23:27.399Z,40.40
2018-08-23T04:24:27.303Z,40.60
2018-08-23T04:25:27.304Z,41.40
2018-08-23T04:26:27.259Z,41.90
2018-08-23T04:27:27.318Z,41.50
2018-08-23T04:28:27.214Z,42.60
2018-08-23T04:29:27.229Z,42.10
2018-08-23T04:30:27.170Z,43.30
2018-08-23T04:31:27.243Z,42.50
2018-08-23T04:32:27.131Z,43.10
2018-08-23T04:33:27.156Z,41.50
2018-08-23T04:34:27.083Z,41.10
2018-08-23T04:35:27.170Z,40.80
2018-08-23T04:36:27.046Z,40.40
2018-08-23T04:37:27.081Z,40.60
2018-08-23T04:38:26.995Z,41.20
2018-08-23T04:39:26.995Z,40.70
2018-08-23T04:40:26.957Z,39.70
2018-08-23T04:41:27.009Z,40.00
2018-08-23T04:42:26.908Z,39.80
2018-08-23T04:43:26.921Z,39.10
2018-08-23T04:44:26.866Z,39.30
2018-08-23T04:45:26.940Z,41.10
2018-08-23T04:46:26.825Z,41.00
2018-08-23T04:47:26.847Z,41.20
2018-08-23T04:48:26.775Z,40.10
2018-08-23T04:49:26.862Z,40.70
2018-08-23T04:50:26.739Z,40.40
2018-08-23T04:51:26.773Z,40.70
2018-08-23T04:52:26.690Z,40.80
2018-08-23T04:53:26.685Z,41.40
2018-08-23T04:54:26.645Z,39.60
2018-08-23T04:55:26.701Z,40.40
2018-08-23T04:56:26.603Z,40.20
2018-08-23T04:57:26.610Z,40.70
2018-08-23T04:58:26.563Z,40.40
2018-08-23T04:59:26.624Z,42.30
2018-08-23T05:00:26.514Z,43.30
2018-08-23T05:01:26.539Z,42.50
2018-08-23T05:02:26.470Z,41.50
2018-08-23T05:03:26.553Z,39.60
2018-08-23T05:04:26.430Z,41.50
2018-08-23T05:05:26.465Z,40.20
2018-08-23T05:06:26.382Z,42.80
2018-08-23T05:07:26.374Z,40.40
2018-08-23T05:08:26.341Z,39.50
2018-08-23T05:09:26.388Z,40.90
2018-08-23T05:10:26.297Z,41.50
2018-08-23T05:11:26.302Z,41.60
2018-08-23T05:12:26.255Z,42.70
2018-08-23T05:13:26.316Z,41.80
2018-08-23T05:14:26.210Z,41.80
2018-08-23T05:15:26.228Z,42.50
2018-08-23T05:16:26.164Z,42.30
2018-08-23T05:17:26.242Z,44.30
2018-08-23T05:18:26.122Z,41.30
2018-08-23T05:19:26.153Z,43.50
2018-08-23T05:20:26.076Z,43.60
2018-08-23T05:21:26.168Z,45.60
2018-08-23T05:22:26.031Z,45.00
2018-08-23T05:23:26.084Z,42.20
2018-08-23T05:24:25.989Z,44.40
2018-08-23T05:25:25.991Z,44.10
2018-08-23T05:26:25.946Z,46.10
2018-08-23T05:27:26.009Z,45.30
2018-08-23T05:28:25.901Z,48.50
2018-08-23T05:29:25.927Z,46.60
2018-08-23T05:30:25.858Z,45.00
2018-08-23T05:31:25.940Z,46.60
2018-08-23T05:32:25.814Z,47.00
2018-08-23T05:33:25.851Z,45.60
2018-08-23T05:34:25.768Z,46.50
2018-08-23T05:35:25.863Z,46.40
2018-08-23T05:36:25.729Z,47.30
2018-08-23T05:37:25.778Z,46.80
2018-08-23T05:38:25.684Z,47.50
2018-08-23T05:39:25.685Z,48.30
2018-08-23T05:40:25.638Z,47.30
2018-08-23T05:41:25.701Z,47.50
2018-08-23T05:42:25.597Z,47.60
2018-08-23T05:43:25.611Z,46.40
2018-08-23T05:44:25.553Z,46.50
2018-08-23T05:45:25.627Z,46.70
2018-08-23T05:46:25.507Z,47.00
2018-08-23T05:47:25.537Z,48.00
2018-08-23T05:48:25.468Z,47.60
2018-08-23T05:49:25.575Z,47.30
2018-08-23T05:50:25.422Z,46.20
2018-08-23T05:51:25.462Z,47.50
2018-08-23T05:52:25.378Z,47.80
2018-08-23T05:53:25.373Z,46.60
2018-08-23T05:54:25.333Z,46.90
2018-08-23T05:55:25.388Z,48.30
2018-08-23T05:56:25.291Z,47.90
2018-08-23T05:57:25.302Z,48.00
2018-08-23T05:58:25.247Z,48.40
2018-08-23T05:59:25.312Z,48.20
2018-08-23T06:00:25.203Z,48.80
2018-08-23T06:01:25.227Z,49.60
2018-08-23T06:02:25.159Z,49.10
2018-08-23T06:03:25.237Z,49.50
2018-08-23T06:04:25.116Z,49.10
2018-08-23T06:05:25.148Z,49.20
2018-08-23T06:06:25.069Z,49.00
2018-08-23T06:07:25.162Z,50.20
2018-08-23T06:08:25.086Z,50.70
2018-08-23T06:09:25.076Z,52.80
2018-08-23T06:10:24.985Z,51.30
2018-08-23T06:11:24.988Z,51.80
2018-08-23T06:12:24.941Z,50.90
2018-08-23T06:13:24.999Z,51.80
2018-08-23T06:14:24.901Z,52.30
2018-08-23T06:15:24.912Z,51.20
2018-08-23T06:16:24.854Z,52.80
2018-08-23T06:17:24.927Z,53.60
2018-08-23T06:18:24.812Z,51.50
2018-08-23T06:19:24.847Z,52.30
2018-08-23T06:20:24.768Z,54.40
2018-08-23T06:21:24.852Z,53.80
2018-08-23T06:22:24.725Z,54.40
2018-08-23T06:23:24.767Z,53.60
2018-08-23T06:24:24.681Z,53.20
2018-08-23T06:25:24.678Z,55.20
2018-08-23T06:26:24.636Z,54.40
2018-08-23T06:27:24.714Z,54.40
2018-08-23T06:28:24.593Z,53.50
2018-08-23T06:29:24.602Z,55.20
2018-08-23T06:30:24.553Z,53.70
2018-08-23T06:31:24.620Z,55.40
2018-08-23T06:32:24.512Z,54.00
2018-08-23T06:33:24.727Z,54.40
2018-08-23T06:34:24.464Z,52.40
2018-08-23T06:35:24.545Z,53.60
2018-08-23T06:36:24.425Z,53.20
2018-08-23T06:37:24.463Z,53.70
2018-08-23T06:38:24.378Z,51.70
2018-08-23T06:39:24.469Z,51.20
2018-08-23T06:40:24.339Z,51.50
2018-08-23T06:41:24.381Z,53.80
2018-08-23T06:42:24.292Z,52.80
2018-08-23T06:43:24.292Z,52.70
2018-08-23T06:44:24.297Z,53.60
2018-08-23T06:45:24.305Z,55.20
2018-08-23T06:46:24.208Z,54.90
2018-08-23T06:47:24.218Z,55.20
2018-08-23T06:48:24.168Z,54.70
2018-08-23T06:49:24.233Z,55.30
2018-08-23T06:50:24.125Z,55.90
2018-08-23T06:51:24.146Z,56.20
2018-08-23T06:52:24.080Z,56.00
2018-08-23T06:53:24.161Z,54.50
2018-08-23T06:54:24.039Z,53.80
2018-08-23T06:55:24.071Z,54.80
2018-08-23T06:56:24.003Z,54.80
2018-08-23T06:57:24.085Z,54.20
2018-08-23T06:58:23.952Z,54.20
2018-08-23T06:59:23.997Z,53.80
2018-08-23T07:00:23.910Z,54.40
2018-08-23T07:01:23.916Z,52.10
2018-08-23T07:02:23.869Z,52.90
2018-08-23T07:03:23.925Z,51.60
2018-08-23T07:04:23.825Z,51.60
2018-08-23T07:05:23.877Z,53.30
2018-08-23T07:06:23.784Z,53.80
2018-08-23T07:07:23.849Z,51.90
2018-08-23T07:08:23.742Z,52.70
2018-08-23T07:09:23.762Z,50.30
2018-08-23T07:10:23.702Z,51.50
2018-08-23T07:11:23.777Z,52.60
2018-08-23T07:12:23.662Z,49.80
2018-08-23T07:13:23.687Z,50.10
2018-08-23T07:14:23.618Z,50.30
2018-08-23T07:15:23.702Z,47.50
2018-08-23T07:16:23.572Z,48.90
2018-08-23T07:17:23.654Z,49.20
2018-08-23T07:18:23.533Z,49.30
2018-08-23T07:19:23.529Z,46.60
2018-08-23T07:20:23.488Z,47.20
2018-08-23T07:21:23.541Z,47.30
2018-08-23T07:22:23.446Z,46.10
2018-08-23T07:23:23.453Z,46.80
2018-08-23T07:24:23.416Z,45.50
2018-08-23T07:25:23.468Z,45.50
2018-08-23T07:26:23.437Z,45.80
2018-08-23T07:27:23.369Z,45.10
2018-08-23T07:28:23.323Z,44.90
2018-08-23T07:29:23.392Z,43.80
2018-08-23T07:30:23.280Z,43.80
2018-08-23T07:31:23.308Z,43.80
2018-08-23T07:32:23.240Z,42.40
2018-08-23T07:33:23.349Z,40.90
2018-08-23T07:34:23.202Z,42.00
2018-08-23T07:35:23.230Z,40.90
2018-08-23T07:36:23.170Z,39.10
2018-08-23T07:37:23.139Z,39.80
2018-08-23T07:38:23.257Z,39.30
2018-08-23T07:39:23.190Z,40.10
2018-08-23T07:40:23.270Z,38.90
2018-08-23T07:41:23.055Z,38.20
2018-08-23T07:42:23.060Z,39.30
2018-08-23T07:43:23.090Z,38.10
2018-08-23T07:44:22.994Z,38.40
2018-08-23T07:45:22.996Z,38.30
2018-08-23T07:46:22.956Z,39.20
2018-08-23T07:47:23.011Z,39.10
2018-08-23T07:48:22.917Z,37.90
2018-08-23T07:49:22.924Z,37.10
2018-08-23T07:50:22.870Z,37.40
2018-08-23T07:51:22.958Z,37.80
2018-08-23T07:52:22.834Z,37.60
2018-08-23T07:53:23.018Z,38.10
2018-08-23T07:54:22.795Z,38.70
2018-08-23T07:55:22.868Z,38.50
2018-08-23T07:56:22.752Z,36.90
2018-08-23T07:57:22.778Z,37.70
2018-08-23T07:58:22.712Z,36.80
2018-08-23T07:59:22.787Z,36.50
2018-08-23T08:00:22.669Z,37.00
2018-08-23T08:01:22.704Z,36.30
2018-08-23T08:02:22.634Z,36.30
2018-08-23T08:03:22.714Z,37.10
2018-08-23T08:04:22.592Z,35.80
2018-08-23T08:05:22.626Z,35.40
2018-08-23T08:06:22.554Z,36.80
2018-08-23T08:07:22.639Z,36.50
2018-08-23T08:08:22.513Z,37.00
2018-08-23T08:09:22.552Z,36.10
2018-08-23T08:10:22.475Z,36.00
2018-08-23T08:11:22.565Z,36.20
2018-08-23T08:12:22.435Z,36.80
2018-08-23T08:13:22.478Z,34.70
2018-08-23T08:14:22.396Z,34.60
2018-08-23T08:15:22.668Z,34.90
2018-08-23T08:16:22.355Z,36.50
2018-08-23T08:17:22.405Z,35.20
2018-08-23T08:18:22.312Z,34.10
2018-08-23T08:19:22.315Z,32.90
2018-08-23T08:20:22.274Z,33.10
2018-08-23T08:21:22.328Z,32.50
2018-08-23T08:22:22.235Z,32.40
2018-08-23T08:23:22.243Z,32.80
2018-08-23T08:24:22.196Z,31.80
2018-08-23T08:25:22.257Z,31.30
2018-08-23T08:26:22.162Z,32.00
2018-08-23T08:27:22.169Z,31.40
2018-08-23T08:28:22.120Z,30.90
2018-08-23T08:29:22.190Z,30.40
2018-08-23T08:30:22.080Z,30.40
2018-08-23T08:31:22.092Z,30.40
2018-08-23T08:32:22.043Z,28.70
2018-08-23T08:33:22.111Z,29.40
2018-08-23T08:34:22.004Z,29.40
2018-08-23T08:35:22.020Z,29.00
2018-08-23T08:36:21.963Z,29.20
2018-08-23T08:37:22.036Z,28.90
2018-08-23T08:38:21.927Z,28.80
2018-08-23T08:39:21.948Z,27.90
2018-08-23T08:40:21.887Z,27.30
2018-08-23T08:41:21.959Z,28.10
2018-08-23T08:42:21.850Z,27.40
2018-08-23T08:43:21.872Z,26.00
2018-08-23T08:44:21.813Z,27.40
2018-08-23T08:45:21.887Z,25.50
2018-08-23T08:46:21.770Z,27.20
2018-08-23T08:47:21.796Z,25.70
2018-08-23T08:48:21.733Z,25.00
2018-08-23T08:49:21.814Z,26.20
2018-08-23T08:50:21.731Z,24.40
2018-08-23T08:51:21.723Z,23.30
2018-08-23T08:52:21.662Z,22.50
2018-08-23T08:53:21.740Z,22.80
2018-08-23T08:54:21.619Z,22.20
2018-08-23T08:55:21.651Z,22.20
2018-08-23T08:56:21.590Z,22.70
2018-08-23T08:57:21.733Z,22.80
2018-08-23T08:58:21.544Z,22.30
2018-08-23T08:59:21.584Z,23.30
2018-08-23T09:00:21.512Z,23.40
2018-08-23T09:01:21.591Z,23.20
2018-08-23T09:02:21.468Z,22.60
2018-08-23T09:03:21.504Z,23.50
2018-08-23T09:04:21.436Z,22.50
2018-08-23T09:05:21.519Z,21.60
2018-08-23T09:06:21.397Z,23.80
2018-08-23T09:07:21.429Z,24.10
2018-08-23T09:08:21.359Z,23.60
2018-08-23T09:09:21.445Z,23.50
2018-08-23T09:10:21.319Z,22.70
2018-08-23T09:11:21.357Z,21.30
2018-08-23T09:12:21.284Z,22.80
2018-08-23T09:13:21.370Z,22.90
2018-08-23T09:14:21.255Z,21.30
2018-08-23T09:15:21.281Z,21.40
2018-08-23T09:16:21.217Z,21.30
2018-08-23T09:17:21.298Z,21.40
2018-08-23T09:18:21.172Z,20.90
2018-08-23T09:19:21.206Z,21.70
2018-08-23T09:20:21.183Z,20.80
2018-08-23T09:21:21.238Z,20.60
2018-08-23T09:22:21.100Z,20.90
2018-08-23T09:23:21.090Z,19.80
2018-08-23T09:24:21.067Z,19.60
2018-08-23T09:25:21.261Z,20.00
2018-08-23T09:26:21.031Z,20.90
2018-08-23T09:27:21.114Z,20.70
2018-08-23T09:28:20.995Z,21.40
2018-08-23T09:29:21.080Z,20.50
2018-08-23T09:30:20.962Z,20.80
2018-08-23T09:31:20.996Z,20.70
2018-08-23T09:32:20.925Z,20.80
2018-08-23T09:33:21.004Z,19.70
2018-08-23T09:34:20.889Z,19.70
2018-08-23T09:35:20.926Z,20.50
2018-08-23T09:36:20.854Z,19.80
2018-08-23T09:37:20.927Z,20.30
2018-08-23T09:38:20.809Z,19.10
2018-08-23T09:39:20.847Z,19.60
2018-08-23T09:40:20.786Z,20.60
2018-08-23T09:41:20.861Z,20.90
2018-08-23T09:42:20.760Z,19.70
2018-08-23T09:43:20.773Z,19.80
2018-08-23T09:44:20.719Z,19.90
2018-08-23T09:45:20.785Z,20.60
2018-08-23T09:46:20.688Z,20.60
2018-08-23T09:47:20.696Z,20.60
2018-08-23T09:48:20.646Z,19.50
2018-08-23T09:49:20.712Z,18.30
2018-08-23T09:50:20.619Z,18.80
2018-08-23T09:51:20.623Z,19.50
2018-08-23T09:52:20.636Z,19.10
2018-08-23T09:53:20.635Z,18.30
2018-08-23T09:54:20.548Z,17.20
2018-08-23T09:55:20.651Z,16.80
2018-08-23T09:56:20.530Z,16.90
2018-08-23T09:57:20.560Z,15.80
2018-08-23T09:58:20.482Z,15.30
2018-08-23T09:59:20.574Z,15.50
2018-08-23T10:00:20.449Z,15.90
2018-08-23T10:01:20.493Z,14.80
2018-08-23T10:02:20.414Z,14.80
2018-08-23T10:03:20.503Z,14.20
2018-08-23T10:04:20.447Z,14.90
2018-08-23T10:05:20.415Z,14.50
2018-08-23T10:06:20.383Z,15.00
2018-08-23T10:07:20.426Z,16.70
2018-08-23T10:08:20.315Z,15.90
2018-08-23T10:09:20.341Z,16.10
2018-08-23T10:10:20.285Z,17.40
2018-08-23T10:11:20.432Z,17.50
2018-08-23T10:12:20.253Z,18.20
2018-08-23T10:13:20.271Z,22.10
2018-08-23T10:14:20.219Z,25.40
2018-08-23T10:15:20.281Z,27.80
2018-08-23T10:16:20.196Z,29.90
2018-08-23T10:17:20.194Z,30.70
2018-08-23T10:18:20.153Z,30.70
2018-08-23T10:19:20.205Z,31.70
2018-08-23T10:20:20.124Z,33.30
2018-08-23T10:21:20.218Z,30.90
2018-08-23T10:22:20.089Z,33.00
2018-08-23T10:23:20.133Z,31.10
2018-08-23T10:24:20.056Z,30.30
2018-08-23T10:25:20.144Z,30.80
2018-08-23T10:26:20.026Z,29.40
2018-08-23T10:27:20.047Z,28.60
2018-08-23T10:28:19.996Z,24.80
2018-08-23T10:29:20.078Z,26.60
2018-08-23T10:30:19.966Z,27.80
2018-08-23T10:31:19.982Z,27.70
2018-08-23T10:32:20.056Z,27.70
2018-08-23T10:33:19.995Z,26.30
2018-08-23T10:34:19.905Z,25.90
2018-08-23T10:35:19.920Z,23.70
2018-08-23T10:36:19.912Z,22.40
2018-08-23T10:37:19.924Z,22.40
2018-08-23T10:38:19.857Z,22.00
2018-08-23T10:39:19.824Z,20.60
2018-08-23T10:40:19.814Z,20.50
2018-08-23T10:41:19.793Z,20.60
2018-08-23T10:42:19.785Z,21.20
2018-08-23T10:43:19.764Z,22.20
2018-08-23T10:44:19.831Z,22.00
2018-08-23T10:45:19.732Z,24.80
2018-08-23T10:46:19.828Z,22.70
2018-08-23T10:47:19.701Z,24.20
2018-08-23T10:48:19.690Z,23.10
2018-08-23T10:49:19.672Z,21.70
2018-08-23T10:50:19.665Z,22.50
2018-08-23T10:51:19.650Z,22.10
2018-08-23T10:52:19.657Z,23.50
2018-08-23T10:53:19.683Z,22.80
2018-08-23T10:54:19.667Z,23.50
2018-08-23T10:55:19.575Z,25.80
2018-08-23T10:56:19.699Z,26.40
2018-08-23T10:57:19.548Z,27.20
2018-08-23T10:58:19.546Z,26.10
2018-08-23T10:59:19.515Z,26.70
2018-08-23T11:00:19.505Z,26.70
2018-08-23T11:01:19.490Z,25.60
2018-08-23T11:02:19.508Z,27.60
2018-08-23T11:03:19.457Z,26.70
2018-08-23T11:04:19.522Z,26.00
2018-08-23T11:05:19.427Z,27.00
2018-08-23T11:06:19.435Z,28.20
2018-08-23T11:07:19.404Z,27.20
2018-08-23T11:08:19.442Z,27.60
2018-08-23T11:09:19.363Z,28.00
2018-08-23T11:10:19.460Z,27.30
2018-08-23T11:11:19.342Z,26.90
2018-08-23T11:12:19.368Z,25.00
2018-08-23T11:13:19.299Z,25.80
2018-08-23T11:14:19.378Z,25.80
2018-08-23T11:15:19.278Z,23.00
2018-08-23T11:16:19.287Z,23.10
2018-08-23T11:17:19.253Z,22.50
2018-08-23T11:18:19.299Z,23.20
2018-08-23T11:19:19.219Z,21.80
2018-08-23T11:20:19.313Z,19.90
2018-08-23T11:21:19.190Z,20.30
2018-08-23T11:22:19.225Z,21.50
2018-08-23T11:23:19.161Z,20.20
2018-08-23T11:24:19.236Z,20.90
2018-08-23T11:25:19.142Z,19.60
2018-08-23T11:26:19.145Z,20.10
2018-08-23T11:27:19.097Z,21.10
2018-08-23T11:28:19.158Z,20.40
2018-08-23T11:29:19.074Z,19.70
2018-08-23T11:30:19.170Z,19.20
2018-08-23T11:31:19.043Z,22.60
2018-08-23T11:32:19.080Z,20.60
2018-08-23T11:33:19.016Z,19.00
2018-08-23T11:34:19.006Z,19.00
2018-08-23T11:35:19.005Z,20.60
2018-08-23T11:36:19.111Z,19.10
2018-08-23T11:37:18.956Z,20.40
2018-08-23T11:38:19.022Z,22.00
2018-08-23T11:39:18.929Z,23.40
2018-08-23T11:40:18.939Z,21.80
2018-08-23T11:41:18.898Z,20.40
2018-08-23T11:42:18.947Z,20.30
2018-08-23T11:43:18.869Z,20.70
2018-08-23T11:44:18.962Z,21.40
2018-08-23T11:45:18.845Z,22.10
2018-08-23T11:46:18.874Z,20.60
2018-08-23T11:47:18.812Z,20.20
2018-08-23T11:48:18.802Z,21.10
2018-08-23T11:49:18.777Z,20.60
2018-08-23T11:50:18.778Z,20.30
2018-08-23T11:51:18.761Z,19.90
2018-08-23T11:52:18.815Z,19.70
2018-08-23T11:53:18.794Z,20.60
2018-08-23T11:54:18.721Z,20.00
2018-08-23T11:55:18.714Z,21.30
2018-08-23T11:56:18.689Z,19.60
2018-08-23T11:57:18.728Z,20.70
2018-08-23T11:58:18.661Z,20.20
2018-08-23T11:59:18.769Z,18.20
2018-08-23T12:00:18.632Z,20.60
2018-08-23T12:01:18.651Z,20.00
2018-08-23T12:02:18.601Z,17.50
2018-08-23T12:03:18.664Z,19.20
2018-08-23T12:04:18.575Z,19.90
2018-08-23T12:05:18.679Z,18.30
2018-08-23T12:06:18.549Z,20.10
2018-08-23T12:07:18.589Z,20.40
2018-08-23T12:08:18.521Z,18.90
2018-08-23T12:09:18.602Z,19.50
2018-08-23T12:10:18.496Z,18.10
2018-08-23T12:11:18.510Z,18.30
2018-08-23T12:12:18.464Z,17.50
2018-08-23T12:13:18.521Z,17.20
2018-08-23T12:14:18.441Z,18.30
2018-08-23T12:15:18.561Z,18.20
2018-08-23T12:16:18.413Z,17.10
2018-08-23T12:17:18.441Z,18.30
2018-08-23T12:18:18.382Z,17.90
2018-08-23T12:19:18.455Z,17.20
2018-08-23T12:20:18.358Z,16.30
2018-08-23T12:21:18.361Z,17.20
2018-08-23T12:22:18.325Z,16.80
2018-08-23T12:23:18.374Z,15.40
2018-08-23T12:24:18.299Z,15.10
2018-08-23T12:25:18.392Z,13.90
2018-08-23T12:26:18.321Z,14.10
2018-08-23T12:27:18.295Z,14.20
2018-08-23T12:28:18.245Z,13.80
2018-08-23T12:29:18.307Z,16.80
2018-08-23T12:30:18.220Z,14.10
2018-08-23T12:31:18.218Z,15.20
2018-08-23T12:32:18.198Z,15.10
2018-08-23T12:33:18.235Z,15.00
2018-08-23T12:34:18.161Z,14.90
2018-08-23T12:35:18.243Z,13.90
2018-08-23T12:36:18.134Z,15.10
2018-08-23T12:37:18.150Z,14.60
2018-08-23T12:38:18.117Z,14.10
2018-08-23T12:39:18.165Z,15.30
2018-08-23T12:40:18.082Z,14.60
2018-08-23T12:41:18.177Z,13.20
2018-08-23T12:42:18.081Z,12.70
2018-08-23T12:43:18.118Z,14.20
2018-08-23T12:44:18.028Z,13.50
2018-08-23T12:45:18.104Z,14.00
2018-08-23T12:46:18.063Z,12.40
2018-08-23T12:47:18.010Z,12.60
2018-08-23T12:48:17.975Z,13.50
2018-08-23T12:49:18.042Z,13.80
2018-08-23T12:50:17.946Z,13.60
2018-08-23T12:51:18.035Z,12.80
2018-08-23T12:52:17.917Z,12.60
2018-08-23T12:53:17.951Z,13.70